Time;durP1;ratioP1;P1;durP2;ratioP2;P2;SDS_P1;SDS_P2;PMS_P1;PMS_P2;Temp;Humidity;BMP_temperature;BMP_pressure;BME280_temperature;BME280_humidity;BME280_pressure;Samples;Min_cycle;Max_cycle;Signal;HPM_P1;HPM_P2
2023/08/17 00:00:51;;;;;;;5.28;1.10;;;;;;;;;;5050232;28;20056;-73
2023/08/17 00:03:17;;;;;;;4.75;1.05;;;;;;;;;;5050083;28;20111;-73
2023/08/17 00:05:44;;;;;;;6.30;2.00;;;;;;;;;;5049563;28;20032;-72
2023/08/17 00:08:10;;;;;;;4.53;1.00;;;;;;;;;;5049939;28;20075;-72
2023/08/17 00:10:38;;;;;;;5.20;0.95;;;;;;;;;;5050382;28;20025;-72
2023/08/17 00:13:04;;;;;;;4.28;1.42;;;;;;;;;;5032108;28;20419;-74
2023/08/17 00:15:30;;;;;;;5.97;1.23;;;;;;;;;;5049858;28;20702;-73
2023/08/17 00:17:56;;;;;;;4.05;1.17;;;;;;;;;;5049350;28;20064;-73
2023/08/17 00:20:22;;;;;;;3.78;1.00;;;;;;;;;;5031810;28;20053;-73
2023/08/17 00:22:48;;;;;;;3.67;1.05;;;;;;;;;;5049927;28;20057;-73
2023/08/17 00:25:14;;;;;;;2.78;0.98;;;;;;;;;;5049529;28;20450;-73
2023/08/17 00:27:40;;;;;;;4.93;1.05;;;;;;;;;;5049395;28;20035;-74
2023/08/17 00:30:07;;;;;;;6.57;1.17;;;;;;;;;;5049293;28;20032;-74
2023/08/17 00:32:33;;;;;;;7.63;1.00;;;;;;;;;;5049482;28;20471;-74
2023/08/17 00:34:59;;;;;;;8.15;1.20;;;;;;;;;;5049905;28;20029;-73
2023/08/17 00:37:25;;;;;;;5.03;1.05;;;;;;;;;;5049398;28;20029;-73
2023/08/17 00:39:51;;;;;;;7.30;1.08;;;;;;;;;;5049403;28;20117;-72
2023/08/17 00:42:17;;;;;;;5.35;0.88;;;;;;;;;;5049165;28;20053;-73
2023/08/17 00:44:43;;;;;;;6.28;0.95;;;;;;;;;;5049917;28;20029;-73
2023/08/17 00:47:09;;;;;;;3.63;1.00;;;;;;;;;;5049407;28;20119;-73
2023/08/17 00:49:35;;;;;;;3.05;0.85;;;;;;;;;;5049242;28;20025;-73
2023/08/17 00:52:02;;;;;;;3.97;0.80;;;;;;;;;;5049334;28;20035;-72
2023/08/17 00:54:30;;;;;;;6.88;1.10;;;;;;;;;;5049016;28;20028;-72
2023/08/17 00:56:56;;;;;;;5.10;0.80;;;;;;;;;;5049500;28;20437;-73
2023/08/17 00:59:22;;;;;;;2.22;0.80;;;;;;;;;;5048016;28;20079;-73
2023/08/17 01:01:49;;;;;;;3.83;0.93;;;;;;;;;;5049161;28;20462;-73
2023/08/17 01:04:15;;;;;;;3.00;0.80;;;;;;;;;;5048875;28;20029;-73
2023/08/17 01:06:41;;;;;;;5.65;1.10;;;;;;;;;;5048751;28;20043;-73
2023/08/17 01:09:07;;;;;;;3.05;0.95;;;;;;;;;;5049016;28;20036;-71
2023/08/17 01:11:48;;;;;;;5.82;1.00;;;;;;;;;;5048862;28;20475;-72
2023/08/17 01:14:20;;;;;;;6.10;1.02;;;;;;;;;;5048915;28;20037;-72
2023/08/17 01:17:01;;;;;;;2.42;0.88;;;;;;;;;;5048183;28;20020;-71
2023/08/17 01:19:28;;;;;;;3.90;1.02;;;;;;;;;;5048704;28;20021;-72
2023/08/17 01:22:08;;;;;;;3.60;0.70;;;;;;;;;;5048839;28;20028;-72
2023/08/17 01:24:34;;;;;;;4.57;0.90;;;;;;;;;;5048460;28;20449;-72
2023/08/17 01:27:00;;;;;;;4.57;1.00;;;;;;;;;;5048380;28;20127;-72
2023/08/17 01:29:27;;;;;;;7.82;1.27;;;;;;;;;;5048804;28;20083;-73
2023/08/17 01:32:10;;;;;;;5.35;1.20;;;;;;;;;;5048522;28;20025;-73
2023/08/17 01:34:41;;;;;;;5.43;0.80;;;;;;;;;;5048490;28;20099;-72
2023/08/17 01:37:08;;;;;;;6.80;1.38;;;;;;;;;;5048903;28;20375;-72
2023/08/17 01:39:37;;;;;;;4.72;1.10;;;;;;;;;;5048545;28;20033;-72
2023/08/17 01:42:04;;;;;;;16.00;2.08;;;;;;;;;;5048451;28;20060;-72
2023/08/17 01:44:30;;;;;;;4.18;1.02;;;;;;;;;;5049089;28;20029;-73
2023/08/17 01:46:56;;;;;;;3.60;1.10;;;;;;;;;;5048684;28;20053;-72
2023/08/17 01:49:22;;;;;;;5.97;1.00;;;;;;;;;;5048601;28;20028;-72
2023/08/17 01:51:48;;;;;;;2.92;1.00;;;;;;;;;;5048997;28;20510;-73
2023/08/17 01:54:14;;;;;;;4.80;1.30;;;;;;;;;;5048483;28;20032;-72
2023/08/17 01:56:40;;;;;;;4.95;1.10;;;;;;;;;;5048367;28;20067;-72
2023/08/17 01:59:06;;;;;;;4.07;0.80;;;;;;;;;;5048223;28;20021;-72
2023/08/17 02:01:32;;;;;;;5.32;0.95;;;;;;;;;;5048637;28;20083;-72
2023/08/17 02:04:01;;;;;;;5.03;1.02;;;;;;;;;;5048270;28;20028;-71
2023/08/17 02:06:28;;;;;;;5.10;0.90;;;;;;;;;;5048153;28;20064;-70
2023/08/17 02:08:54;;;;;;;6.80;1.45;;;;;;;;;;5048282;28;20309;-71
2023/08/17 02:11:20;;;;;;;9.13;1.30;;;;;;;;;;5051022;28;20028;-72
2023/08/17 02:13:46;;;;;;;7.63;1.20;;;;;;;;;;5051591;28;20525;-71
2023/08/17 02:16:12;;;;;;;7.28;1.50;;;;;;;;;;5033887;28;20489;-72
2023/08/17 02:18:38;;;;;;;6.65;1.20;;;;;;;;;;5052004;28;20022;-72
2023/08/17 02:21:04;;;;;;;4.53;1.10;;;;;;;;;;5052002;28;20033;-72
2023/08/17 02:23:30;;;;;;;6.93;1.35;;;;;;;;;;5051717;28;20078;-72
2023/08/17 02:25:56;;;;;;;7.22;1.23;;;;;;;;;;5051530;28;20040;-72
2023/08/17 02:28:22;;;;;;;5.72;1.02;;;;;;;;;;5051868;28;20028;-72
2023/08/17 02:30:49;;;;;;;4.28;1.17;;;;;;;;;;5051960;28;20028;-72
2023/08/17 02:33:15;;;;;;;7.28;1.73;;;;;;;;;;5051470;28;20052;-72
2023/08/17 02:35:41;;;;;;;7.13;1.33;;;;;;;;;;5051143;28;20038;-72
2023/08/17 02:38:07;;;;;;;5.03;1.60;;;;;;;;;;5051767;28;20029;-72
2023/08/17 02:40:33;;;;;;;6.15;1.10;;;;;;;;;;5051904;28;20025;-73
2023/08/17 02:42:59;;;;;;;6.13;1.55;;;;;;;;;;5051552;28;20076;-74
2023/08/17 02:45:25;;;;;;;3.42;1.00;;;;;;;;;;5051489;28;20483;-73
2023/08/17 02:47:51;;;;;;;3.08;0.80;;;;;;;;;;5051302;28;20049;-73
2023/08/17 02:50:17;;;;;;;6.90;1.10;;;;;;;;;;5051444;28;20025;-73
2023/08/17 02:52:43;;;;;;;4.90;0.98;;;;;;;;;;5051303;28;20538;-73
2023/08/17 02:55:09;;;;;;;2.92;0.75;;;;;;;;;;5051603;28;20029;-73
2023/08/17 02:57:35;;;;;;;6.00;1.08;;;;;;;;;;5051494;28;20044;-73
2023/08/17 03:00:01;;;;;;;4.20;0.90;;;;;;;;;;5050873;28;20482;-73
2023/08/17 03:02:27;;;;;;;4.50;2.10;;;;;;;;;;5051130;28;20050;-73
2023/08/17 03:04:53;;;;;;;2.78;0.80;;;;;;;;;;5051004;28;20509;-74
2023/08/17 03:07:19;;;;;;;4.93;1.05;;;;;;;;;;5051130;28;20047;-73
2023/08/17 03:09:45;;;;;;;2.90;0.77;;;;;;;;;;5050607;28;20025;-73
2023/08/17 03:12:11;;;;;;;3.08;0.88;;;;;;;;;;5050752;28;20036;-73
2023/08/17 03:14:37;;;;;;;3.80;1.48;;;;;;;;;;5051145;28;20021;-73
2023/08/17 03:17:04;;;;;;;2.28;0.70;;;;;;;;;;5050621;28;20445;-73
2023/08/17 03:19:30;;;;;;;4.78;0.80;;;;;;;;;;5050528;28;20121;-73
2023/08/17 03:21:56;;;;;;;3.38;1.13;;;;;;;;;;5050117;28;20394;-73
2023/08/17 03:24:22;;;;;;;2.50;0.82;;;;;;;;;;5050955;28;20021;-72
2023/08/17 03:26:48;;;;;;;3.38;1.02;;;;;;;;;;5050225;28;20037;-72
2023/08/17 03:29:14;;;;;;;5.20;1.35;;;;;;;;;;5050558;28;20078;-73
2023/08/17 03:31:40;;;;;;;7.97;1.30;;;;;;;;;;5050869;28;20089;-73
2023/08/17 03:34:06;;;;;;;6.57;1.00;;;;;;;;;;5050527;28;20482;-73
2023/08/17 03:36:32;;;;;;;10.05;1.10;;;;;;;;;;5050451;28;20142;-73
2023/08/17 03:38:58;;;;;;;5.07;1.00;;;;;;;;;;5050800;28;20116;-73
2023/08/17 03:41:25;;;;;;;7.90;1.42;;;;;;;;;;5050272;28;20395;-73
2023/08/17 03:43:51;;;;;;;5.03;0.90;;;;;;;;;;5050363;28;20032;-73
2023/08/17 03:46:17;;;;;;;4.30;0.82;;;;;;;;;;5050086;28;20056;-73
2023/08/17 03:48:43;;;;;;;6.72;1.60;;;;;;;;;;5050305;28;20025;-73
2023/08/17 03:51:09;;;;;;;6.05;1.20;;;;;;;;;;5050228;28;20395;-73
2023/08/17 03:53:35;;;;;;;4.57;1.08;;;;;;;;;;5050709;28;20025;-73
2023/08/17 03:56:02;;;;;;;3.08;0.93;;;;;;;;;;5050795;28;20029;-74
2023/08/17 03:58:33;;;;;;;7.22;1.00;;;;;;;;;;5050088;28;20048;-73
2023/08/17 04:00:59;;;;;;;2.90;0.80;;;;;;;;;;5050337;28;20059;-73
2023/08/17 04:03:25;;;;;;;4.15;0.85;;;;;;;;;;5050400;28;20028;-73
2023/08/17 04:05:51;;;;;;;3.67;1.00;;;;;;;;;;5049988;28;20041;-73
2023/08/17 04:08:17;;;;;;;2.78;0.73;;;;;;;;;;5049966;28;20033;-74
2023/08/17 04:10:43;;;;;;;3.38;0.70;;;;;;;;;;5049945;28;20028;-74
2023/08/17 04:13:09;;;;;;;4.28;1.00;;;;;;;;;;5050147;28;20033;-74
2023/08/17 04:15:35;;;;;;;5.03;0.90;;;;;;;;;;5049813;28;20108;-74
2023/08/17 04:18:01;;;;;;;2.65;0.60;;;;;;;;;;5050007;28;21019;-74
2023/08/17 04:20:27;;;;;;;4.05;0.80;;;;;;;;;;5049431;28;20025;-74
2023/08/17 04:22:53;;;;;;;5.20;1.10;;;;;;;;;;5049850;28;20032;-73
2023/08/17 04:25:19;;;;;;;4.72;1.02;;;;;;;;;;5049408;28;20032;-73
2023/08/17 04:27:45;;;;;;;2.88;1.35;;;;;;;;;;5049171;28;20036;-73
2023/08/17 04:30:11;;;;;;;3.55;1.00;;;;;;;;;;5049238;28;20031;-73
2023/08/17 04:32:37;;;;;;;2.58;0.70;;;;;;;;;;5049399;28;20021;-73
2023/08/17 04:35:05;;;;;;;1.38;0.60;;;;;;;;;;5049537;28;20033;-73
2023/08/17 04:37:32;;;;;;;4.07;0.80;;;;;;;;;;5049918;28;20047;-73
2023/08/17 04:39:58;;;;;;;2.78;0.70;;;;;;;;;;5049121;28;20094;-74
2023/08/17 04:42:24;;;;;;;3.95;0.70;;;;;;;;;;5049498;28;20029;-73
2023/08/17 04:44:50;;;;;;;5.15;1.10;;;;;;;;;;5049256;28;20475;-73
2023/08/17 04:47:16;;;;;;;2.42;0.82;;;;;;;;;;5048459;28;20055;-73
2023/08/17 04:49:42;;;;;;;2.83;0.70;;;;;;;;;;5048810;28;20032;-73
2023/08/17 04:52:08;;;;;;;3.20;0.80;;;;;;;;;;5049004;28;20033;-73
2023/08/17 04:54:35;;;;;;;2.42;1.10;;;;;;;;;;5049239;28;20037;-74
2023/08/17 04:57:01;;;;;;;1.45;0.63;;;;;;;;;;5049223;28;20140;-74
2023/08/17 04:59:27;;;;;;;1.95;0.63;;;;;;;;;;5049130;28;20029;-73
2023/08/17 05:01:54;;;;;;;2.33;0.55;;;;;;;;;;5049406;28;20102;-73
2023/08/17 05:04:20;;;;;;;1.25;0.50;;;;;;;;;;5048849;28;20029;-73
2023/08/17 05:06:46;;;;;;;3.30;1.08;;;;;;;;;;5048817;28;20040;-73
2023/08/17 05:09:12;;;;;;;3.05;0.65;;;;;;;;;;5048740;28;20039;-74
2023/08/17 05:11:38;;;;;;;8.32;1.15;;;;;;;;;;5049431;28;20024;-73
2023/08/17 05:14:04;;;;;;;2.55;0.82;;;;;;;;;;5049444;28;20479;-73
2023/08/17 05:16:30;;;;;;;2.88;0.70;;;;;;;;;;5048863;28;20025;-72
2023/08/17 05:18:58;;;;;;;3.95;1.13;;;;;;;;;;5049240;28;20027;-74
2023/08/17 05:21:24;;;;;;;3.78;0.73;;;;;;;;;;5049034;28;20047;-73
2023/08/17 05:23:50;;;;;;;3.47;0.80;;;;;;;;;;5048957;28;20475;-74
2023/08/17 05:26:16;;;;;;;2.13;0.68;;;;;;;;;;5049113;28;20037;-74
2023/08/17 05:28:43;;;;;;;2.30;0.75;;;;;;;;;;5049115;28;20037;-74
2023/08/17 05:31:09;;;;;;;3.22;0.80;;;;;;;;;;5049054;28;20113;-74
2023/08/17 05:33:35;;;;;;;1.80;0.50;;;;;;;;;;5048816;28;20029;-74
2023/08/17 05:36:01;;;;;;;2.63;0.70;;;;;;;;;;5048522;28;20025;-74
2023/08/17 05:38:27;;;;;;;8.88;1.20;;;;;;;;;;5048702;28;20050;-74
2023/08/17 05:40:57;;;;;;;3.38;1.13;;;;;;;;;;5048769;28;20021;-73
2023/08/17 05:43:23;;;;;;;2.97;0.70;;;;;;;;;;5048611;28;20541;-73
2023/08/17 05:45:49;;;;;;;3.25;0.65;;;;;;;;;;5050702;28;20036;-73
2023/08/17 05:48:15;;;;;;;3.20;1.02;;;;;;;;;;5052544;28;20503;-73
2023/08/17 05:50:42;;;;;;;4.80;0.90;;;;;;;;;;5052160;28;20063;-72
2023/08/17 05:53:08;;;;;;;2.35;0.52;;;;;;;;;;5052400;28;20029;-73
2023/08/17 05:55:34;;;;;;;1.45;0.68;;;;;;;;;;5052564;28;20479;-74
2023/08/17 05:58:00;;;;;;;3.63;0.70;;;;;;;;;;5052039;28;20036;-73
2023/08/17 06:00:26;;;;;;;2.90;0.68;;;;;;;;;;5052407;28;20032;-73
2023/08/17 06:02:54;;;;;;;3.63;0.60;;;;;;;;;;5052066;28;20028;-73
2023/08/17 06:05:26;;;;;;;1.15;0.60;;;;;;;;;;5052688;28;20049;-73
2023/08/17 06:07:52;;;;;;;3.72;0.82;;;;;;;;;;5052765;28;20029;-73
2023/08/17 06:10:18;;;;;;;2.10;0.80;;;;;;;;;;5052263;28;20074;-73
2023/08/17 06:12:44;;;;;;;2.42;0.75;;;;;;;;;;5034596;28;20072;-74
2023/08/17 06:15:10;;;;;;;2.47;0.82;;;;;;;;;;5052498;28;20032;-74
2023/08/17 06:17:36;;;;;;;3.08;0.70;;;;;;;;;;5052162;28;20085;-74
2023/08/17 06:20:03;;;;;;;2.30;0.63;;;;;;;;;;5051673;28;20494;-74
2023/08/17 06:22:29;;;;;;;1.90;0.70;;;;;;;;;;5052026;28;20025;-73
2023/08/17 06:24:55;;;;;;;1.73;0.40;;;;;;;;;;5051719;28;20036;-74
2023/08/17 06:27:21;;;;;;;1.83;0.80;;;;;;;;;;5051861;28;20041;-74
2023/08/17 06:29:47;;;;;;;2.63;0.60;;;;;;;;;;5052178;28;20082;-75
2023/08/17 06:32:13;;;;;;;3.63;0.70;;;;;;;;;;5033524;28;20025;-74
2023/08/17 06:34:39;;;;;;;3.95;0.77;;;;;;;;;;5051578;28;20025;-73
2023/08/17 06:37:05;;;;;;;4.75;0.90;;;;;;;;;;5051710;28;20483;-74
2023/08/17 06:39:32;;;;;;;5.82;1.20;;;;;;;;;;5051829;28;20098;-72
2023/08/17 06:41:58;;;;;;;3.53;0.77;;;;;;;;;;5051512;28;20084;-73
2023/08/17 06:44:24;;;;;;;8.73;1.48;;;;;;;;;;5051440;28;20423;-73
2023/08/17 06:46:50;;;;;;;3.33;1.42;;;;;;;;;;5051680;28;20078;-73
2023/08/17 06:49:16;;;;;;;11.13;1.23;;;;;;;;;;5049485;28;20029;-73
2023/08/17 06:51:42;;;;;;;6.55;1.25;;;;;;;;;;5051201;28;20028;-73
2023/08/17 06:54:11;;;;;;;6.53;1.75;;;;;;;;;;5050451;28;20403;-72
2023/08/17 06:56:37;;;;;;;6.60;1.63;;;;;;;;;;5029934;28;20437;-73
2023/08/17 06:59:04;;;;;;;6.43;1.15;;;;;;;;;;5048161;28;20024;-73
2023/08/17 07:01:30;;;;;;;9.88;1.85;;;;;;;;;;5047725;28;20074;-75
2023/08/17 07:03:57;;;;;;;6.18;1.15;;;;;;;;;;5047985;28;20057;-75
2023/08/17 07:06:23;;;;;;;4.40;1.15;;;;;;;;;;5047600;28;20033;-74
2023/08/17 07:08:49;;;;;;;5.28;1.30;;;;;;;;;;5048533;28;20048;-73
2023/08/17 07:11:15;;;;;;;6.05;1.48;;;;;;;;;;5048902;28;20463;-73
2023/08/17 07:13:41;;;;;;;6.82;1.33;;;;;;;;;;5050430;28;20057;-76
2023/08/17 07:16:07;;;;;;;5.22;1.50;;;;;;;;;;5051136;28;20071;-73
2023/08/17 07:18:33;;;;;;;7.80;1.95;;;;;;;;;;5032558;28;20471;-72
2023/08/17 07:20:59;;;;;;;4.47;1.20;;;;;;;;;;5050812;28;20029;-72
2023/08/17 07:23:25;;;;;;;5.38;1.25;;;;;;;;;;5050879;28;20074;-72
2023/08/17 07:25:51;;;;;;;6.30;1.45;;;;;;;;;;5051010;28;20529;-71
2023/08/17 07:28:17;;;;;;;6.90;2.08;;;;;;;;;;5051034;28;20078;-72
2023/08/17 07:30:43;;;;;;;7.53;1.60;;;;;;;;;;5050630;28;20029;-73
2023/08/17 07:33:09;;;;;;;5.60;2.15;;;;;;;;;;5050328;28;20094;-72
2023/08/17 07:35:35;;;;;;;8.73;1.40;;;;;;;;;;5050756;28;20475;-72
2023/08/17 07:38:01;;;;;;;4.28;1.30;;;;;;;;;;5050532;28;20067;-73
2023/08/17 07:40:27;;;;;;;5.70;1.30;;;;;;;;;;5050725;28;20386;-73
2023/08/17 07:42:53;;;;;;;6.38;1.40;;;;;;;;;;5050797;28;20048;-74
2023/08/17 07:45:19;;;;;;;10.05;2.13;;;;;;;;;;5050649;28;20029;-72
2023/08/17 07:47:45;;;;;;;7.47;1.85;;;;;;;;;;5051021;28;20072;-72
2023/08/17 07:50:11;;;;;;;4.05;1.50;;;;;;;;;;5051069;28;20052;-73
2023/08/17 07:52:37;;;;;;;5.97;2.03;;;;;;;;;;5050522;28;20096;-73
2023/08/17 07:55:03;;;;;;;7.70;1.50;;;;;;;;;;5050325;28;20037;-73
2023/08/17 07:57:29;;;;;;;9.38;1.60;;;;;;;;;;5051014;28;20407;-74
2023/08/17 07:59:56;;;;;;;12.77;1.67;;;;;;;;;;5050346;28;20050;-74
2023/08/17 08:02:22;;;;;;;8.18;1.15;;;;;;;;;;5050420;28;20027;-73
2023/08/17 08:04:48;;;;;;;6.80;2.20;;;;;;;;;;5050447;28;20033;-72
2023/08/17 08:07:14;;;;;;;6.25;1.60;;;;;;;;;;5049902;28;20040;-73
2023/08/17 08:09:40;;;;;;;5.75;1.50;;;;;;;;;;5050120;28;20391;-73
2023/08/17 08:12:07;;;;;;;6.13;1.50;;;;;;;;;;5050583;28;20028;-73
2023/08/17 08:14:34;;;;;;;4.60;1.35;;;;;;;;;;5050528;28;20104;-72
2023/08/17 08:17:00;;;;;;;6.32;1.80;;;;;;;;;;5050239;28;20032;-75
2023/08/17 08:19:26;;;;;;;8.35;1.40;;;;;;;;;;5049534;28;20036;-78
2023/08/17 08:21:52;;;;;;;5.95;1.65;;;;;;;;;;5050257;28;20029;-81
2023/08/17 08:24:18;;;;;;;6.13;1.83;;;;;;;;;;5050953;28;20074;-73
2023/08/17 08:26:43;;;;;;;10.70;1.98;;;22.10;91.60;;;;;;5049580;28;20041;-70
2023/08/17 08:29:09;;;;;;;7.90;1.73;;;22.10;92.10;;;;;;5047689;28;20025;-71
2023/08/17 08:31:35;;;;;;;11.23;2.20;;;21.90;92.40;;;;;;5047685;28;20025;-71
2023/08/17 08:34:00;;;;;;;14.75;2.67;;;21.90;92.50;;;;;;5049100;28;20028;-72
2023/08/17 08:36:26;;;;;;;11.85;1.92;;;22.00;92.60;;;;;;5048704;28;20135;-71
2023/08/17 08:38:51;;;;;;;7.82;2.35;;;22.00;92.50;;;;;;5048582;28;20032;-72
2023/08/17 08:41:17;;;;;;;9.32;2.55;;;22.00;92.50;;;;;;5049903;28;20024;-73
2023/08/17 08:43:43;;;;;;;13.52;2.35;;;21.80;92.50;;;;;;5053714;28;20051;-70
2023/08/17 08:46:09;;;;;;;8.57;1.75;;;21.80;93.00;;;;;;5049914;28;20024;-71
2023/08/17 08:48:39;;;;;;;9.10;1.65;;;22.00;92.80;;;;;;5033635;28;20080;-71
2023/08/17 08:51:08;;;;;;;7.95;2.00;;;22.10;92.80;;;;;;5050485;28;20090;-70
2023/08/17 08:53:38;;;;;;;9.07;2.33;;;22.10;92.80;;;;;;5049802;28;20017;-70
2023/08/17 08:56:07;;;;;;;;;;;22.20;92.70;;;;;;5051560;28;20105;-73
2023/08/17 08:58:33;;;;;;;6.38;1.80;;;22.30;92.70;;;;;;5051110;28;19912;-75
2023/08/17 09:01:00;;;;;;;40.65;4.50;;;22.40;92.70;;;;;;5052951;28;20415;-73
2023/08/17 09:03:26;;;;;;;9.15;1.95;;;22.40;92.40;;;;;;5051585;28;20028;-73
2023/08/17 09:05:53;;;;;;;10.52;2.20;;;22.40;92.50;;;;;;5052501;28;20059;-73
2023/08/17 09:08:24;;;;;;;16.45;2.58;;;22.40;92.50;;;;;;5051986;28;20090;-75
2023/08/17 09:10:50;;;;;;;12.15;3.38;;;22.50;92.30;;;;;;5050650;28;20086;-74
2023/08/17 09:13:16;;;;;;;11.90;3.15;;;22.40;92.20;;;;;;5048841;28;20021;-71
2023/08/17 09:15:41;;;;;;;10.10;2.55;;;22.20;91.80;;;;;;5049093;28;20100;-71
2023/08/17 09:18:10;;;;;;;10.55;3.33;;;21.90;92.50;;;;;;5049632;28;20432;-71
2023/08/17 09:20:38;;;;;;;14.30;3.00;;;22.10;92.60;;;;;;5048233;28;20047;-71
2023/08/17 09:23:04;;;;;;;5.63;2.38;;;22.20;92.60;;;;;;5048969;28;20031;-71
2023/08/17 09:25:31;;;;;;;10.07;3.72;;;22.20;92.30;;;;;;5049348;28;20491;-71
2023/08/17 09:27:57;;;;;;;6.63;2.80;;;22.10;92.50;;;;;;5051369;28;20513;-71
2023/08/17 09:30:23;;;;;;;8.73;3.63;;;22.10;92.60;;;;;;5052908;28;20029;-74
2023/08/17 09:32:49;;;;;;;16.60;3.95;;;22.30;92.50;;;;;;5051677;28;20017;-68
2023/08/17 09:35:15;;;;;;;6.68;2.45;;;22.30;92.40;;;;;;5052357;28;20071;-67
2023/08/17 09:37:41;;;;;;;9.27;2.92;;;22.40;92.30;;;;;;5052097;28;20033;-73
2023/08/17 09:40:08;;;;;;;11.05;2.92;;;22.40;92.20;;;;;;5052152;28;20025;-73
2023/08/17 09:42:38;;;;;;;7.40;2.50;;;22.50;92.20;;;;;;5034248;28;20052;-74
2023/08/17 09:45:05;;;;;;;7.53;2.40;;;22.50;92.20;;;;;;5052570;28;20483;-78
2023/08/17 09:47:31;;;;;;;8.23;3.05;;;22.60;92.10;;;;;;5052869;28;20053;-77
2023/08/17 09:49:57;;;;;;;9.00;3.22;;;22.60;92.10;;;;;;5035122;28;20490;-78
2023/08/17 09:52:26;;;;;;;12.00;3.53;;;22.60;92.00;;;;;;5051940;28;20048;-74
2023/08/17 09:54:54;;;;;;;13.27;3.67;;;22.60;92.00;;;;;;5052177;28;20025;-75
2023/08/17 09:57:22;;;;;;;7.35;2.65;;;22.70;91.90;;;;;;5050522;28;20372;-68
2023/08/17 09:59:51;;;;;;;7.85;3.17;;;22.50;92.00;;;;;;5050957;28;20032;-68
2023/08/17 10:02:23;;;;;;;9.13;3.22;;;22.50;92.00;;;;;;5049348;28;20123;-67
2023/08/17 10:04:51;;;;;;;8.82;3.22;;;22.40;92.10;;;;;;5049214;28;20029;-67
2023/08/17 10:07:21;;;;;;;13.38;3.78;;;22.30;92.20;;;;;;5049258;28;20383;-67
2023/08/17 10:09:49;;;;;;;;;;;22.30;92.30;;;;;;5049538;28;20498;-67
2023/08/17 10:12:16;;;;;;;8.95;3.30;;;22.10;92.20;;;;;;5049037;28;19908;-67
2023/08/17 10:14:47;;;;;;;7.95;3.92;;;22.10;92.70;;;;;;5048303;28;20107;-66
2023/08/17 10:17:19;;;;;;;8.75;3.35;;;22.00;92.50;;;;;;5049723;28;20036;-67
2023/08/17 10:19:52;;;;;;;7.07;2.90;;;22.10;92.70;;;;;;5048896;28;20029;-67
2023/08/17 10:22:44;;;;;;;11.32;3.60;;;22.20;92.60;;;;;;5049553;28;20086;-67
2023/08/17 10:25:13;;;;;;;19.73;3.60;;;22.00;92.90;;;;;;5049494;28;20075;-71
2023/08/17 10:27:42;;;;;;;32.08;4.75;;;22.10;92.70;;;;;;5050030;28;20432;-70
2023/08/17 10:30:10;;;;;;;26.33;4.10;;;22.20;92.60;;;;;;5049981;28;20059;-69
2023/08/17 10:32:36;;;;;;;23.67;3.70;;;22.30;92.50;;;;;;5052679;28;20021;-70
2023/08/17 10:35:03;;;;;;;21.48;4.20;;;22.40;92.40;;;;;;5052526;28;20502;-70
2023/08/17 10:37:30;;;;;;;25.27;4.20;;;22.40;92.30;;;;;;5053159;28;20024;-69
2023/08/17 10:39:56;;;;;;;18.23;2.88;;;22.50;92.20;;;;;;5052419;28;20371;-70
2023/08/17 10:42:36;;;;;;;17.15;2.95;;;22.60;92.20;;;;;;5051852;28;20021;-70
2023/08/17 10:45:23;;;;;;;19.65;5.07;;;22.60;92.10;;;;;;5052276;28;20112;-70
2023/08/17 10:47:49;;;;;;;21.27;4.22;;;22.70;92.10;;;;;;5034630;28;20052;-70
2023/08/17 10:50:24;;;;;;;15.15;3.03;;;22.70;92.00;;;;;;5057921;28;20037;-70
2023/08/17 10:52:53;;;;;;;17.48;3.13;;;22.80;92.00;;;;;;5057275;28;20032;-70
2023/08/17 10:55:39;;;;;;;12.90;2.60;;;22.80;91.90;;;;;;5057049;28;20021;-70
2023/08/17 10:58:08;;;;;;;11.40;3.03;;;22.80;91.90;;;;;;5057114;28;20021;-70
2023/08/17 11:00:40;;;;;;;12.25;2.53;;;22.90;91.90;;;;;;5049345;28;20021;-70
2023/08/17 11:03:10;;;;;;;16.73;3.45;;;22.90;91.80;;;;;;5050268;28;20025;-68
2023/08/17 11:05:40;;;;;;;9.95;2.53;;;22.90;91.80;;;;;;5049266;28;20033;-68
2023/08/17 11:08:09;;;;;;;8.07;2.75;;;23.00;91.60;;;;;;5030299;28;20403;-68
2023/08/17 11:10:35;;;;;;;9.77;2.65;;;23.00;91.60;;;;;;5047442;28;20040;-68
2023/08/17 11:13:01;;;;;;;10.80;2.40;;;23.10;91.50;;;;;;5048340;28;20017;-68
2023/08/17 11:15:41;;;;;;;10.38;3.00;;;23.10;91.60;;;;;;5048288;28;20151;-69
2023/08/17 11:18:07;;;;;;;7.40;2.53;;;23.10;91.60;;;;;;5047842;28;20021;-68
2023/08/17 11:20:34;;;;;;;6.85;2.28;;;23.10;91.50;;;;;;5048407;28;20044;-68
2023/08/17 11:23:00;;;;;;;9.13;2.75;;;23.10;91.50;;;;;;5050299;28;20484;-68
2023/08/17 11:25:27;;;;;;;7.25;2.40;;;23.10;91.50;;;;;;5051067;28;20155;-68
2023/08/17 11:27:53;;;;;;;7.78;3.13;;;23.20;91.40;;;;;;5050941;28;20036;-68
2023/08/17 11:30:22;;;;;;;6.10;2.40;;;23.20;91.50;;;;;;5032764;28;20469;-68
2023/08/17 11:32:52;;;;;;;6.97;2.40;;;23.20;91.40;;;;;;5051021;28;20025;-68
2023/08/17 11:35:18;;;;;;;;;;;23.20;91.40;;;;;;5050911;28;20025;-68
2023/08/17 11:37:44;;;;;;;7.22;2.28;;;23.20;91.40;;;;;;5050481;28;19909;-68
2023/08/17 11:40:13;;;;;;;7.72;3.05;;;23.20;91.40;;;;;;5050388;28;20862;-70
2023/08/17 11:42:39;;;;;;;6.27;2.20;;;23.30;91.30;;;;;;5049692;28;20025;-69
2023/08/17 11:45:05;;;;;;;6.43;2.22;;;23.30;91.30;;;;;;5050324;28;20021;-69
2023/08/17 11:47:32;;;;;;;7.82;2.60;;;23.30;91.30;;;;;;5049914;28;20048;-69
2023/08/17 11:50:01;;;;;;;6.78;2.45;;;23.30;91.30;;;;;;5050855;28;20067;-68
2023/08/17 11:52:29;;;;;;;7.83;2.23;;;23.30;91.30;;;;;;5049884;28;20036;-69
2023/08/17 11:54:57;;;;;;;7.90;2.47;;;23.30;91.30;;;;;;5050004;28;20259;-69
2023/08/17 11:57:23;;;;;;;6.25;2.70;;;23.30;91.20;;;;;;5049901;28;20475;-69
2023/08/17 11:59:52;;;;;;;7.65;2.55;;;23.30;91.20;;;;;;5032065;28;20040;-69
2023/08/17 12:02:18;;;;;;;7.03;2.35;;;23.30;91.20;;;;;;5050449;28;20013;-69
2023/08/17 12:04:44;;;;;;;6.63;1.88;;;23.30;91.20;;;;;;5049838;28;20437;-69
2023/08/17 12:07:10;;;;;;;7.35;2.53;;;23.30;91.20;;;;;;5049511;28;20033;-69
2023/08/17 12:09:36;;;;;;;7.55;2.20;;;23.40;91.20;;;;;;5050202;28;20659;-69
2023/08/17 12:12:02;;;;;;;6.72;2.10;;;23.40;91.20;;;;;;5050179;28;20031;-69
2023/08/17 12:14:28;;;;;;;6.18;2.40;;;23.40;91.40;;;;;;5050201;28;20029;-69
2023/08/17 12:16:55;;;;;;;7.57;2.42;;;23.40;91.10;;;;;;5050002;28;20120;-69
2023/08/17 12:19:21;;;;;;;6.07;2.08;;;23.40;91.10;;;;;;5049439;28;20025;-69
2023/08/17 12:21:48;;;;;;;4.40;2.10;;;23.40;91.10;;;;;;5049910;28;20017;-69
2023/08/17 12:24:19;;;;;;;6.00;2.13;;;23.40;91.10;;;;;;5050179;28;20102;-69
2023/08/17 12:26:46;;;;;;;4.57;2.15;;;23.40;91.00;;;;;;5050037;28;20512;-69
2023/08/17 12:29:12;;;;;;;5.10;2.17;;;23.40;91.10;;;;;;5049570;28;20039;-69
2023/08/17 12:31:38;;;;;;;4.72;2.17;;;23.40;91.10;;;;;;5049991;28;20431;-69
2023/08/17 12:34:05;;;;;;;7.15;2.53;;;23.40;91.00;;;;;;5050548;28;20514;-68
2023/08/17 12:36:35;;;;;;;5.57;2.45;;;23.40;91.00;;;;;;5049895;28;20040;-68
2023/08/17 12:39:00;;;;;;;;;;;23.40;91.00;;;;;;5050577;28;20370;-69
2023/08/17 12:41:26;;;;;;;4.65;2.05;;;23.40;91.00;;;;;;5050253;28;19967;-69
2023/08/17 12:43:53;;;;;;;4.68;2.17;;;23.40;91.00;;;;;;5049703;28;20028;-69
2023/08/17 12:46:19;;;;;;;6.38;2.42;;;23.40;91.00;;;;;;5049559;28;20029;-69
2023/08/17 12:48:45;;;;;;;6.43;2.15;;;23.40;91.00;;;;;;5049158;28;20559;-69
2023/08/17 12:51:10;;;;;;;6.95;2.28;;;23.40;91.10;;;;;;5047919;28;20021;-69
2023/08/17 12:53:36;;;;;;;7.53;2.50;;;23.40;91.00;;;;;;5047693;28;20028;-69
2023/08/17 12:56:01;;;;;;;5.25;2.40;;;23.40;91.00;;;;;;5048107;28;20104;-68
2023/08/17 12:58:27;;;;;;;5.75;1.95;;;23.40;91.00;;;;;;5048001;28;20060;-69
2023/08/17 13:00:54;;;;;;;3.97;1.77;;;23.40;91.30;;;;;;5048070;28;20025;-69
2023/08/17 13:03:20;;;;;;;7.00;2.03;;;23.50;91.10;;;;;;5048070;28;20028;-69
2023/08/17 13:05:45;;;;;;;3.97;2.00;;;23.40;91.00;;;;;;5048870;28;20025;-68
2023/08/17 13:08:11;;;;;;;3.08;1.70;;;23.40;91.00;;;;;;5049081;28;20090;-69
2023/08/17 13:10:37;;;;;;;4.70;1.95;;;23.50;91.00;;;;;;5049022;28;20072;-68
2023/08/17 13:13:03;;;;;;;4.75;1.90;;;23.50;91.00;;;;;;5049785;28;20029;-69
2023/08/17 13:15:29;;;;;;;6.05;2.42;;;23.50;91.00;;;;;;5049780;28;20029;-69
2023/08/17 13:17:55;;;;;;;4.75;2.00;;;23.50;91.00;;;;;;5049125;28;20029;-69
2023/08/17 13:20:21;;;;;;;4.63;2.35;;;23.50;90.90;;;;;;5049034;28;20048;-69
2023/08/17 13:22:46;;;;;;;7.88;2.92;;;23.50;90.90;;;;;;5049032;28;20017;-68
2023/08/17 13:25:12;;;;;;;7.45;3.22;;;23.50;91.10;;;;;;5048725;28;20021;-68
2023/08/17 13:27:37;;;;;;;9.93;3.00;;;23.50;91.20;;;;;;5048481;28;20076;-68
2023/08/17 13:30:04;;;;;;;10.82;3.25;;;23.50;91.30;;;;;;5048931;28;20021;-68
2023/08/17 13:32:29;;;;;;;9.23;3.45;;;23.50;91.30;;;;;;5049291;28;20025;-67
2023/08/17 13:34:55;;;;;;;12.32;4.07;;;23.50;91.60;;;;;;5048620;28;20392;-69
2023/08/17 13:37:21;;;;;;;14.02;5.22;;;23.10;91.90;;;;;;5048923;28;20086;-69
2023/08/17 13:39:47;;;;;;;11.85;4.70;;;22.70;92.40;;;;;;5049619;28;20104;-69
2023/08/17 13:42:12;;;;;;;8.73;4.38;;;22.70;92.70;;;;;;5048700;28;20472;-69
2023/08/17 13:44:38;;;;;;;9.32;4.45;;;22.60;92.90;;;;;;5049002;28;20116;-69
2023/08/17 13:47:04;;;;;;;10.18;4.38;;;22.60;92.90;;;;;;5048558;28;20063;-70
2023/08/17 13:49:29;;;;;;;8.85;4.32;;;22.40;93.30;;;;;;5048976;28;20079;-70
2023/08/17 13:51:56;;;;;;;7.13;3.63;;;22.40;93.50;;;;;;5048368;28;20391;-69